Time;durP1;ratioP1;P1;durP2;ratioP2;P2;SDS_P1;SDS_P2;PMS_P1;PMS_P2;Temp;Humidity;BMP_temperature;BMP_pressure;BME280_temperature;BME280_humidity;BME280_pressure;Samples;Min_cycle;Max_cycle;Signal;HPM_P1;HPM_P2
2022/07/29 00:02:14;;;;;;;8.93;8.33;;;19.70;99.90;;;;;;5014999;28;20261;-92
2022/07/29 00:04:40;;;;;;;9.13;8.23;;;19.70;99.90;;;;;;5018178;28;20530;-93
2022/07/29 00:07:05;;;;;;;9.10;8.50;;;19.70;99.90;;;;;;5017608;28;20188;-94
2022/07/29 00:09:31;;;;;;;8.63;8.03;;;19.70;99.90;;;;;;5001940;28;20911;-95
2022/07/29 00:12:00;;;;;;;9.57;8.77;;;19.70;99.90;;;;;;5006013;28;20555;-94
2022/07/29 00:14:27;;;;;;;9.67;8.73;;;19.70;99.90;;;;;;5018771;28;20451;-95
2022/07/29 00:16:53;;;;;;;9.70;8.90;;;19.70;99.90;;;;;;5010737;28;20432;-94
2022/07/29 00:19:18;;;;;;;9.43;8.70;;;19.70;99.90;;;;;;5014447;28;20449;-95
2022/07/29 00:21:44;;;;;;;8.53;7.80;;;19.80;99.90;;;;;;5014285;28;20179;-95
2022/07/29 00:24:09;;;;;;;9.20;8.60;;;19.70;99.90;;;;;;5025712;28;20413;-95
2022/07/29 00:26:35;;;;;;;9.60;8.90;;;19.70;99.90;;;;;;5016298;28;20551;-94
2022/07/29 00:29:03;;;;;;;9.73;8.97;;;19.70;99.90;;;;;;5023205;28;20862;-94
2022/07/29 00:31:34;;;;;;;10.10;9.40;;;19.50;99.90;;;;;;5023282;28;20201;-95
2022/07/29 00:33:59;;;;;;;11.17;10.37;;;19.40;99.90;;;;;;5019025;28;20467;-95
2022/07/29 00:36:25;;;;;;;9.47;8.73;;;19.40;99.90;;;;;;5013921;28;20440;-94
2022/07/29 00:38:56;;;;;;;8.37;7.77;;;19.50;99.90;;;;;;5006401;28;20723;-95
2022/07/29 00:41:21;;;;;;;8.37;7.60;;;19.50;99.90;;;;;;5005553;28;20457;-92
2022/07/29 00:43:56;;;;;;;8.43;7.67;;;19.50;99.90;;;;;;5003827;28;20439;-95
2022/07/29 00:46:22;;;;;;;8.57;7.97;;;19.50;99.90;;;;;;5005275;28;20439;-93
2022/07/29 00:48:47;;;;;;;9.10;8.40;;;19.40;99.90;;;;;;5014619;28;20825;-92
2022/07/29 00:51:16;;;;;;;8.07;7.40;;;19.40;99.90;;;;;;5010534;28;20187;-92
2022/07/29 00:53:46;;;;;;;7.70;7.10;;;19.30;99.90;;;;;;5005383;28;20196;-94
2022/07/29 00:56:11;;;;;;;7.73;7.13;;;19.20;99.90;;;;;;5007518;28;20442;-93
2022/07/29 00:58:37;;;;;;;7.57;7.07;;;19.20;99.90;;;;;;5013012;28;20471;-92
2022/07/29 01:01:03;;;;;;;8.40;7.73;;;19.20;99.90;;;;;;5011413;28;20215;-92
2022/07/29 01:03:28;;;;;;;7.60;7.00;;;19.20;99.90;;;;;;5007495;28;20450;-93
2022/07/29 01:05:54;;;;;;;8.30;7.63;;;19.10;99.90;;;;;;5013377;28;20185;-93
2022/07/29 01:08:21;;;;;;;7.67;7.07;;;19.10;99.90;;;;;;5012982;28;20238;-93
2022/07/29 01:10:47;;;;;;;8.50;7.80;;;19.00;99.90;;;;;;5004390;28;20224;-93
2022/07/29 01:13:14;;;;;;;8.50;7.90;;;19.00;99.90;;;;;;5005486;28;20444;-92
2022/07/29 01:15:53;;;;;;;8.23;7.63;;;19.00;99.90;;;;;;5005384;28;20448;-92
2022/07/29 01:18:37;;;;;;;8.83;7.13;;;19.00;99.90;;;;;;5010193;28;20761;-92
2022/07/29 01:21:42;;;;;;;8.77;7.97;;;19.00;99.90;;;;;;5011797;28;20440;-91
2022/07/29 01:24:30;;;;;;;7.30;6.80;;;18.90;99.90;;;;;;5000132;28;20849;-90
2022/07/29 01:27:38;;;;;;;6.97;6.37;;;18.90;99.90;;;;;;5010380;28;20546;-90
2022/07/29 01:30:04;;;;;;;6.50;6.00;;;19.00;99.90;;;;;;5009332;28;21919;-90
2022/07/29 01:32:35;;;;;;;6.10;5.60;;;18.90;99.90;;;;;;5010028;28;20427;-90
2022/07/29 01:35:20;;;;;;;5.90;5.50;;;19.00;99.90;;;;;;5010163;28;20451;-91
2022/07/29 01:38:05;;;;;;;6.00;5.53;;;18.90;99.90;;;;;;5004626;28;20443;-91
2022/07/29 01:40:46;;;;;;;6.70;6.10;;;18.90;99.90;;;;;;5026643;28;20467;-91
2022/07/29 01:43:20;;;;;;;5.23;4.73;;;18.90;99.90;;;;;;5004876;28;20486;-90
2022/07/29 01:45:55;;;;;;;6.60;6.10;;;18.90;99.90;;;;;;5011707;28;21232;-89
2022/07/29 01:48:36;;;;;;;5.70;5.20;;;18.80;99.90;;;;;;5005198;28;20466;-90
2022/07/29 01:51:07;;;;;;;6.77;6.27;;;18.90;99.90;;;;;;5010125;28;20489;-93
2022/07/29 01:53:43;;;;;;;5.87;5.37;;;18.90;99.90;;;;;;5001799;28;20488;-91
2022/07/29 01:56:10;;;;;;;6.40;6.00;;;18.90;99.90;;;;;;5007907;28;20772;-91
2022/07/29 01:58:40;;;;;;;6.67;6.27;;;18.70;99.90;;;;;;5028184;28;20436;-92
2022/07/29 02:01:08;;;;;;;7.53;7.00;;;18.70;99.90;;;;;;5004153;28;20447;-92
2022/07/29 02:03:36;;;;;;;7.57;7.07;;;18.70;99.90;;;;;;5005782;28;20443;-91
2022/07/29 02:06:04;;;;;;;7.60;7.00;;;18.80;99.90;;;;;;5002935;28;20874;-90
2022/07/29 02:08:32;;;;;;;8.23;7.60;;;18.70;99.90;;;;;;5012121;28;20498;-91
2022/07/29 02:11:00;;;;;;;7.97;7.47;;;18.70;99.90;;;;;;5000167;28;20446;-91
2022/07/29 02:13:37;;;;;;;7.93;7.33;;;18.70;99.90;;;;;;5000108;28;20837;-91
2022/07/29 02:16:06;;;;;;;7.07;6.57;;;18.60;99.90;;;;;;4996677;28;20447;-91
2022/07/29 02:18:33;;;;;;;7.20;6.60;;;18.70;99.90;;;;;;5012429;28;20442;-91
2022/07/29 02:21:00;;;;;;;7.10;6.60;;;18.60;99.90;;;;;;5010844;28;20435;-92
2022/07/29 02:23:26;;;;;;;7.07;6.47;;;18.40;99.90;;;;;;5010153;28;20450;-91
2022/07/29 02:25:57;;;;;;;7.23;6.73;;;18.20;99.90;;;;;;5000936;28;20466;-91
2022/07/29 02:28:27;;;;;;;8.37;7.77;;;18.10;99.90;;;;;;5010682;28;20517;-91
2022/07/29 02:30:55;;;;;;;8.37;7.67;;;18.00;99.90;;;;;;5009944;28;20474;-91
2022/07/29 02:33:23;;;;;;;7.47;6.97;;;18.00;99.90;;;;;;5009848;28;20559;-91
2022/07/29 02:35:49;;;;;;;6.73;6.23;;;18.00;99.90;;;;;;5024145;28;20450;-91
2022/07/29 02:41:08;;;;;;;7.40;6.90;;;18.00;99.90;;;;;;5005557;28;20438;-91
2022/07/29 02:43:36;;;;;;;8.17;7.37;;;18.00;99.90;;;;;;4997825;28;20805;-91
2022/07/29 02:46:06;;;;;;;7.73;7.23;;;18.00;99.90;;;;;;4999567;28;20593;-91
2022/07/29 02:48:36;;;;;;;7.67;7.17;;;18.10;99.90;;;;;;4999139;28;20470;-90
2022/07/29 02:51:22;;;;;;;8.20;7.50;;;18.10;99.90;;;;;;4999653;28;20444;-92
2022/07/29 02:53:53;;;;;;;8.27;7.67;;;18.20;99.90;;;;;;4980921;28;20436;-91
2022/07/29 02:56:25;;;;;;;8.07;7.47;;;18.20;99.90;;;;;;4995730;28;20794;-92
2022/07/29 02:58:58;;;;;;;8.43;7.53;;;18.20;99.90;;;;;;4989582;28;20447;-92
2022/07/29 03:01:28;;;;;;;8.10;7.50;;;18.20;99.90;;;;;;4990305;28;20476;-91
2022/07/29 03:03:59;;;;;;;8.00;7.30;;;18.20;99.90;;;;;;4992267;28;20453;-91
2022/07/29 03:06:27;;;;;;;8.57;7.70;;;18.20;99.90;;;;;;4989592;28;20891;-91
2022/07/29 03:08:57;;;;;;;8.77;8.17;;;18.20;99.90;;;;;;4987518;28;20627;-92
2022/07/29 03:11:26;;;;;;;9.20;8.50;;;18.20;99.90;;;;;;4981323;28;20428;-92
2022/07/29 03:13:53;;;;;;;8.33;7.60;;;18.10;99.90;;;;;;4984530;28;20450;-91
2022/07/29 03:16:20;;;;;;;8.30;7.70;;;18.10;99.90;;;;;;4985970;28;20443;-92
2022/07/29 03:18:49;;;;;;;7.97;7.47;;;18.10;99.90;;;;;;4989776;28;20521;-91
2022/07/29 03:21:17;;;;;;;9.17;8.47;;;18.10;99.90;;;;;;4986950;28;20447;-92
2022/07/29 03:23:44;;;;;;;7.83;7.23;;;18.10;99.90;;;;;;4992371;28;20443;-90
2022/07/29 03:26:11;;;;;;;8.07;7.27;;;18.00;99.90;;;;;;4983013;28;20479;-91
2022/07/29 03:28:36;;;;;;;7.67;7.07;;;17.90;99.90;;;;;;4978942;28;21084;-89
2022/07/29 03:31:02;;;;;;;7.63;6.90;;;17.80;99.90;;;;;;4983135;28;20436;-90
2022/07/29 03:33:28;;;;;;;7.97;7.27;;;17.80;99.90;;;;;;4985731;28;20182;-89
2022/07/29 03:35:58;;;;;;;8.00;7.20;;;17.80;99.90;;;;;;4992534;28;20205;-89
2022/07/29 03:38:26;;;;;;;7.60;7.10;;;17.80;99.90;;;;;;4989161;28;20451;-90
2022/07/29 03:40:58;;;;;;;7.67;6.97;;;17.80;99.90;;;;;;4988889;28;20448;-90
2022/07/29 03:43:26;;;;;;;8.23;7.63;;;17.80;99.90;;;;;;4983959;28;20568;-90
2022/07/29 03:45:57;;;;;;;8.50;7.90;;;17.80;99.90;;;;;;4983162;28;20462;-91
2022/07/29 03:48:25;;;;;;;9.07;8.27;;;17.70;99.90;;;;;;5004872;28;20555;-90
2022/07/29 03:50:51;;;;;;;9.50;8.60;;;17.60;99.90;;;;;;4991533;28;21062;-92
2022/07/29 03:53:17;;;;;;;9.07;8.27;;;17.50;99.90;;;;;;4992099;28;20452;-91
2022/07/29 03:55:50;;;;;;;9.10;7.70;;;17.50;99.90;;;;;;4984237;28;20466;-90
2022/07/29 03:58:18;;;;;;;8.97;8.27;;;17.50;99.90;;;;;;4990083;28;20441;-91
2022/07/29 04:00:44;;;;;;;8.30;7.60;;;17.40;99.90;;;;;;4994649;28;20545;-92
2022/07/29 04:03:10;;;;;;;7.87;7.27;;;17.40;99.90;;;;;;4981733;28;20450;-91
2022/07/29 04:05:36;;;;;;;8.80;8.00;;;17.40;99.90;;;;;;4980560;28;20969;-90
2022/07/29 04:08:02;;;;;;;9.77;9.00;;;17.50;99.90;;;;;;4985446;28;20221;-91
2022/07/29 04:10:27;;;;;;;8.67;7.97;;;17.60;99.90;;;;;;4980334;28;20280;-88
2022/07/29 04:12:56;;;;;;;9.30;8.47;;;17.60;99.90;;;;;;4996396;28;20204;-90
2022/07/29 04:15:21;;;;;;;8.13;7.43;;;17.80;99.90;;;;;;4988523;28;20203;-89
2022/07/29 04:17:53;;;;;;;9.90;9.10;;;18.00;99.90;;;;;;4990092;28;20436;-89
2022/07/29 04:20:36;;;;;;;9.60;8.70;;;18.10;99.90;;;;;;4994023;28;20403;-91
2022/07/29 04:23:08;;;;;;;10.57;9.47;;;18.20;99.90;;;;;;5011423;28;20466;-94
2022/07/29 04:25:37;;;;;;;9.93;8.10;;;18.40;99.90;;;;;;4987447;28;20703;-91
2022/07/29 04:28:03;;;;;;;8.87;8.17;;;18.40;99.90;;;;;;4979233;28;20471;-93
2022/07/29 04:30:33;;;;;;;9.30;8.60;;;18.40;99.90;;;;;;4995601;28;20465;-92
2022/07/29 04:33:07;;;;;;;10.03;9.23;;;18.50;99.90;;;;;;4982694;28;20187;-93
2022/07/29 04:35:49;;;;;;;10.33;9.20;;;18.50;99.90;;;;;;5006408;28;20444;-91
2022/07/29 04:38:26;;;;;;;10.57;9.67;;;18.30;99.90;;;;;;4995164;28;20494;-93
2022/07/29 04:40:52;;;;;;;8.83;8.13;;;18.20;99.90;;;;;;5017616;28;20455;-92
2022/07/29 04:43:20;;;;;;;9.10;8.40;;;18.20;99.90;;;;;;4998565;28;20498;-93
2022/07/29 04:45:45;;;;;;;9.77;8.83;;;18.10;99.90;;;;;;4993933;28;20436;-93
2022/07/29 04:48:11;;;;;;;8.73;8.10;;;18.10;99.90;;;;;;4986719;28;21499;-92
2022/07/29 04:50:40;;;;;;;8.50;7.60;;;18.20;99.90;;;;;;4990785;28;20538;-92
2022/07/29 04:53:07;;;;;;;8.70;8.00;;;18.30;99.90;;;;;;4994577;28;20185;-91
2022/07/29 04:55:33;;;;;;;9.17;8.37;;;18.40;99.90;;;;;;5000145;28;20451;-91
2022/07/29 04:57:59;;;;;;;8.43;7.83;;;18.40;99.90;;;;;;4993505;28;21688;-93
2022/07/29 05:00:24;;;;;;;9.13;8.40;;;18.50;99.90;;;;;;5012499;28;20594;-93
2022/07/29 05:02:51;;;;;;;9.20;8.40;;;18.40;99.90;;;;;;4997229;28;20177;-92
2022/07/29 05:05:19;;;;;;;8.37;7.70;;;18.40;99.90;;;;;;5013014;28;20197;-93
2022/07/29 05:07:44;;;;;;;8.70;8.00;;;18.50;99.90;;;;;;4991807;28;21681;-94
2022/07/29 05:10:15;;;;;;;8.57;7.87;;;18.60;99.90;;;;;;4995110;28;20461;-94
2022/07/29 05:12:41;;;;;;;9.23;8.53;;;18.50;99.90;;;;;;4998653;28;20448;-94
2022/07/29 05:15:08;;;;;;;7.80;7.20;;;18.60;99.90;;;;;;4994503;28;20451;-93
2022/07/29 05:17:35;;;;;;;8.20;7.50;;;18.80;99.90;;;;;;4991102;28;20262;-93
2022/07/29 05:20:07;;;;;;;11.00;7.63;;;18.80;99.90;;;;;;4990145;28;20463;-94
2022/07/29 05:22:34;;;;;;;7.57;7.07;;;18.90;99.90;;;;;;4981247;28;20456;-93
2022/07/29 05:25:00;;;;;;;7.80;7.20;;;18.90;99.90;;;;;;4993182;28;20455;-94
2022/07/29 05:27:33;;;;;;;6.73;6.33;;;18.90;99.90;;;;;;4991991;28;20448;-94
2022/07/29 05:29:59;;;;;;;7.90;7.30;;;19.00;99.90;;;;;;4989052;28;20216;-94
2022/07/29 05:32:24;;;;;;;9.43;8.40;;;19.20;99.90;;;;;;4998350;28;20511;-93
2022/07/29 05:34:50;;;;;;;8.30;7.60;;;19.40;99.90;;;;;;4994794;28;20217;-91
2022/07/29 05:37:16;;;;;;;7.90;7.10;;;19.50;99.90;;;;;;4996318;28;20188;-94
2022/07/29 05:39:41;;;;;;;7.60;7.00;;;19.40;99.90;;;;;;4995830;28;20181;-92
2022/07/29 05:42:10;;;;;;;7.33;6.67;;;19.30;99.90;;;;;;4990427;28;20720;-91
2022/07/29 05:44:39;;;;;;;8.30;7.70;;;19.20;99.90;;;;;;4991238;28;20217;-93
2022/07/29 05:47:16;;;;;;;7.93;7.33;;;19.20;99.90;;;;;;5008118;28;20844;-94
2022/07/29 05:49:42;;;;;;;7.93;7.10;;;19.30;99.90;;;;;;4993785;28;20520;-93
2022/07/29 05:52:08;;;;;;;7.40;6.73;;;19.40;99.90;;;;;;4999531;28;20476;-94
2022/07/29 05:54:40;;;;;;;8.53;7.93;;;19.50;99.90;;;;;;4992037;28;20201;-94
2022/07/29 05:57:14;;;;;;;7.47;6.77;;;19.60;99.90;;;;;;4991954;28;20444;-94
2022/07/29 05:59:42;;;;;;;7.10;6.67;;;19.60;99.90;;;;;;4991524;28;20472;-92
2022/07/29 06:02:13;;;;;;;7.27;6.77;;;19.80;99.90;;;;;;4997756;28;20449;-93
2022/07/29 06:04:59;;;;;;;6.77;6.27;;;19.90;99.90;;;;;;5003037;28;20443;-93
2022/07/29 06:07:24;;;;;;;7.37;6.63;;;20.00;99.90;;;;;;5012395;28;20591;-95
2022/07/29 06:09:55;;;;;;;7.50;6.90;;;20.10;99.90;;;;;;4997302;28;20947;-94
2022/07/29 06:12:28;;;;;;;7.77;7.17;;;20.10;99.90;;;;;;4994249;28;20718;-95
2022/07/29 06:14:58;;;;;;;7.10;6.57;;;19.90;99.90;;;;;;4996408;28;20446;-95
2022/07/29 06:17:37;;;;;;;7.10;6.60;;;19.80;99.90;;;;;;5002466;28;20443;-94
2022/07/29 06:20:04;;;;;;;7.17;6.57;;;19.80;99.90;;;;;;4979897;28;20453;-95
2022/07/29 06:22:40;;;;;;;7.00;6.50;;;19.90;99.90;;;;;;4979174;28;20448;-93
2022/07/29 06:25:13;;;;;;;7.53;6.93;;;19.80;99.90;;;;;;5007941;28;20478;-96
2022/07/29 06:27:39;;;;;;;6.53;6.10;;;19.80;99.90;;;;;;4986996;28;20466;-92
2022/07/29 06:30:07;;;;;;;6.90;6.37;;;19.90;99.90;;;;;;4994456;28;20472;-91
2022/07/29 06:33:12;;;;;;;6.67;6.17;;;20.10;99.90;;;;;;4995935;28;20557;-92
2022/07/29 06:35:47;;;;;;;7.23;6.63;;;20.10;99.90;;;;;;4998014;28;20447;-92
2022/07/29 06:38:13;;;;;;;6.27;5.77;;;20.10;99.90;;;;;;4992045;28;21056;-90
2022/07/29 06:41:05;;;;;;;6.30;5.90;;;20.10;99.90;;;;;;4993909;28;20987;-90
2022/07/29 06:43:53;;;;;;;6.20;5.70;;;20.30;99.90;;;;;;5011810;28;20435;-89
2022/07/29 06:46:21;;;;;;;6.50;6.00;;;20.50;99.90;;;;;;5009768;28;20455;-92
2022/07/29 06:49:05;;;;;;;5.97;5.47;;;20.80;99.90;;;;;;4999898;28;20559;-92
2022/07/29 06:51:33;;;;;;;5.60;5.20;;;20.90;99.90;;;;;;4991485;28;20526;-90
2022/07/29 06:54:00;;;;;;;5.60;5.20;;;21.10;99.90;;;;;;4986965;28;20664;-89
2022/07/29 06:56:26;;;;;;;5.40;5.10;;;21.20;99.90;;;;;;4995030;28;20455;-89
2022/07/29 06:58:51;;;;;;;5.43;5.03;;;21.30;99.90;;;;;;4993774;28;20448;-90
2022/07/29 07:01:26;;;;;;;5.30;4.90;;;21.40;99.90;;;;;;4991166;28;20237;-92
2022/07/29 07:03:53;;;;;;;5.47;5.07;;;21.40;99.90;;;;;;4993087;28;20201;-94
2022/07/29 07:06:19;;;;;;;6.00;5.50;;;21.50;99.90;;;;;;4996361;28;20436;-89
2022/07/29 07:08:44;;;;;;;5.40;4.90;;;21.90;99.90;;;;;;4992838;28;20482;-92
2022/07/29 07:11:10;;;;;;;5.63;5.23;;;21.90;99.90;;;;;;4998884;28;20174;-93
2022/07/29 07:13:36;;;;;;;5.27;4.87;;;21.90;99.90;;;;;;4997022;28;20188;-94
2022/07/29 07:16:06;;;;;;;4.90;4.60;;;22.00;99.90;;;;;;5003207;28;20405;-94
2022/07/29 07:18:32;;;;;;;4.53;4.13;;;22.10;99.90;;;;;;4993277;28;20482;-89
2022/07/29 07:20:58;;;;;;;25.70;23.40;;;22.10;99.90;;;;;;4990061;28;20443;-91
2022/07/29 07:23:24;;;;;;;5.33;5.00;;;22.30;99.90;;;;;;5006817;28;20177;-89
2022/07/29 07:25:50;;;;;;;5.00;4.60;;;22.30;99.90;;;;;;4988146;28;20685;-89
2022/07/29 07:28:15;;;;;;;5.30;4.90;;;22.30;99.90;;;;;;4987168;28;20502;-87
2022/07/29 07:30:41;;;;;;;5.40;4.93;;;22.20;99.90;;;;;;4993033;28;20185;-88
2022/07/29 07:33:06;;;;;;;5.53;5.03;;;22.10;99.90;;;;;;4982627;28;20634;-87
2022/07/29 07:35:32;;;;;;;7.20;5.10;;;21.90;99.90;;;;;;4987394;28;20185;-87
2022/07/29 07:37:57;;;;;;;5.67;5.27;;;21.70;99.90;;;;;;4983965;28;20185;-88
2022/07/29 07:40:24;;;;;;;5.20;4.80;;;21.70;99.90;;;;;;5006920;28;20673;-88
2022/07/29 07:42:49;;;;;;;5.50;5.10;;;21.70;99.90;;;;;;4995864;28;20210;-88
2022/07/29 07:45:15;;;;;;;4.70;4.40;;;21.70;99.90;;;;;;4988967;28;20865;-88
2022/07/29 07:47:41;;;;;;;5.57;5.13;;;21.90;99.90;;;;;;4992360;28;20288;-87
2022/07/29 07:50:08;;;;;;;5.40;5.00;;;22.10;99.90;;;;;;4982516;28;20279;-88
2022/07/29 07:52:34;;;;;;;5.17;4.77;;;22.40;99.90;;;;;;4998950;28;20436;-88
2022/07/29 07:55:00;;;;;;;5.87;4.90;;;22.50;99.90;;;;;;4979886;28;21022;-88
2022/07/29 07:57:25;;;;;;;4.90;4.50;;;22.50;99.90;;;;;;4982486;28;20189;-88
2022/07/29 07:59:51;;;;;;;5.40;5.10;;;22.60;99.90;;;;;;4983243;28;20271;-88
2022/07/29 08:02:16;;;;;;;5.20;4.90;;;22.70;99.90;;;;;;5000650;28;20200;-88
2022/07/29 08:04:44;;;;;;;6.17;5.67;;;22.70;99.90;;;;;;4984421;28;20190;-88
2022/07/29 08:07:10;;;;;;;5.67;5.10;;;22.50;99.90;;;;;;4984101;28;20193;-88
2022/07/29 08:09:36;;;;;;;5.43;5.03;;;22.50;99.90;;;;;;4985097;28;21026;-88
2022/07/29 08:12:03;;;;;;;5.20;4.80;;;22.60;99.90;;;;;;4991384;28;20238;-88
2022/07/29 08:14:30;;;;;;;6.20;5.67;;;22.80;99.90;;;;;;4989263;28;20196;-88
2022/07/29 08:16:55;;;;;;;5.70;5.30;;;23.00;99.90;;;;;;4992165;28;20433;-88
2022/07/29 08:19:24;;;;;;;6.10;5.60;;;23.10;99.90;;;;;;4993090;28;20443;-88
2022/07/29 08:21:52;;;;;;;6.57;5.97;;;23.30;99.90;;;;;;4997044;28;20625;-88
2022/07/29 08:27:01;;;;;;;5.70;5.27;;;23.30;99.90;;;;;;4985247;28;20503;-88
2022/07/29 08:29:27;;;;;;;6.60;6.20;;;23.20;99.90;;;;;;5000371;28;20492;-88
2022/07/29 08:31:52;;;;;;;5.87;5.37;;;23.20;99.90;;;;;;4989714;28;20560;-88
2022/07/29 08:34:18;;;;;;;6.33;5.87;;;23.20;99.90;;;;;;4987924;28;20177;-88
2022/07/29 08:36:44;;;;;;;5.73;5.40;;;23.40;99.90;;;;;;4982878;28;20192;-88
2022/07/29 08:39:09;;;;;;;5.90;5.50;;;23.60;99.90;;;;;;4982572;28;20215;-88
2022/07/29 08:41:35;;;;;;;5.93;5.40;;;23.60;99.90;;;;;;4983297;28;20178;-88
2022/07/29 08:44:00;;;;;;;6.50;5.93;;;23.70;99.90;;;;;;4984269;28;20189;-88
2022/07/29 08:46:26;;;;;;;6.33;5.93;;;23.90;99.90;;;;;;4982353;28;20193;-88
2022/07/29 08:48:55;;;;;;;6.37;5.87;;;24.10;99.90;;;;;;5000015;28;20250;-88
2022/07/29 08:51:21;;;;;;;5.90;5.50;;;24.30;99.90;;;;;;4987604;28;20276;-88
2022/07/29 08:53:48;;;;;;;6.17;5.67;;;24.20;99.90;;;;;;4984427;28;20891;-88
2022/07/29 08:56:18;;;;;;;6.83;6.20;;;24.20;99.90;;;;;;4983492;28;21972;-88
2022/07/29 08:58:45;;;;;;;6.13;5.70;;;24.40;99.90;;;;;;4999195;28;20498;-88
2022/07/29 09:01:13;;;;;;;6.67;6.10;;;24.40;99.90;;;;;;4986966;28;20485;-88
2022/07/29 09:03:41;;;;;;;7.20;5.63;;;24.50;99.90;;;;;;4995230;28;20570;-88
2022/07/29 09:06:07;;;;;;;6.50;6.10;;;24.60;99.90;;;;;;4985482;28;23281;-88
2022/07/29 09:08:33;;;;;;;6.23;5.57;;;24.70;99.90;;;;;;4981374;28;20997;-89
2022/07/29 09:11:01;;;;;;;7.63;7.03;;;24.90;99.90;;;;;;4999481;28;20452;-88
2022/07/29 09:13:27;;;;;;;7.37;6.77;;;25.10;99.90;;;;;;4994583;28;23788;-88
2022/07/29 09:15:52;;;;;;;6.57;6.00;;;25.10;99.90;;;;;;4984641;28;20957;-88
2022/07/29 09:18:39;;;;;;;6.90;6.30;;;25.20;99.90;;;;;;4989201;28;20193;-88
2022/07/29 09:24:03;;;;;;;6.00;5.53;;;25.20;99.90;;;;;;4988810;28;20446;-87
2022/07/29 09:26:34;;;;;;;6.20;5.73;;;25.40;99.90;;;;;;4985568;28;20459;-88
2022/07/29 09:29:00;;;;;;;6.27;5.87;;;25.40;99.90;;;;;;4982451;28;20567;-88
2022/07/29 09:31:36;;;;;;;6.77;6.30;;;25.50;99.90;;;;;;4983946;28;20446;-88
2022/07/29 09:34:03;;;;;;;7.50;6.80;;;25.80;99.90;;;;;;4987165;28;20188;-87
2022/07/29 09:36:39;;;;;;;6.67;6.07;;;25.70;98.40;;;;;;4987665;28;21792;-88
2022/07/29 09:39:04;;;;;;;5.97;5.57;;;25.80;99.00;;;;;;4983276;28;20479;-88
2022/07/29 09:41:47;;;;;;;7.17;6.70;;;25.60;99.10;;;;;;4982737;28;21024;-89
2022/07/29 09:44:45;;;;;;;6.63;6.13;;;25.80;98.90;;;;;;4983404;28;20317;-89
2022/07/29 09:47:11;;;;;;;6.97;6.47;;;25.70;98.50;;;;;;5000382;28;20436;-89
2022/07/29 09:49:59;;;;;;;7.33;6.90;;;25.80;98.10;;;;;;4987818;28;20512;-89
2022/07/29 09:52:29;;;;;;;7.20;6.70;;;25.90;98.00;;;;;;4987668;28;20188;-89
2022/07/29 09:55:15;;;;;;;6.57;6.10;;;26.20;97.60;;;;;;4985313;28;21062;-89
2022/07/29 09:57:44;;;;;;;6.47;6.07;;;26.50;99.20;;;;;;4982684;28;20442;-89
2022/07/29 10:00:11;;;;;;;7.37;6.67;;;26.50;98.20;;;;;;4983841;28;20439;-88
2022/07/29 10:02:39;;;;;;;6.67;6.10;;;26.50;98.60;;;;;;4986007;28;20455;-90
2022/07/29 10:05:16;;;;;;;7.13;6.37;;;26.50;96.50;;;;;;4987513;28;20465;-90
2022/07/29 10:07:52;;;;;;;6.93;6.47;;;26.30;96.80;;;;;;4989248;28;20475;-91
2022/07/29 10:10:33;;;;;;;7.10;6.50;;;26.20;97.20;;;;;;4991247;28;20489;-90
2022/07/29 10:13:20;;;;;;;6.93;6.50;;;26.50;97.30;;;;;;4983924;28;20448;-89
2022/07/29 10:15:46;;;;;;;7.43;7.00;;;26.60;96.40;;;;;;4984933;28;20810;-89
2022/07/29 10:18:13;;;;;;;7.63;6.93;;;26.70;95.90;;;;;;4983404;28;20449;-88
2022/07/29 10:20:43;;;;;;;7.37;6.87;;;26.50;96.50;;;;;;4987316;28;20177;-88
2022/07/29 10:23:08;;;;;;;7.30;6.70;;;26.60;95.70;;;;;;4980001;28;20448;-89
2022/07/29 10:25:34;;;;;;;6.70;6.20;;;26.50;96.40;;;;;;4996742;28;20789;-88
2022/07/29 10:28:00;;;;;;;7.00;6.50;;;26.30;96.30;;;;;;4980709;28;20201;-88
2022/07/29 10:30:26;;;;;;;6.53;6.03;;;26.40;96.30;;;;;;4983933;28;20188;-88
2022/07/29 10:33:18;;;;;;;6.53;6.00;;;26.60;96.00;;;;;;4985909;28;20519;-89
2022/07/29 10:36:07;;;;;;;7.33;6.83;;;27.20;95.50;;;;;;5010127;28;20455;-88
2022/07/29 10:38:52;;;;;;;7.67;6.93;;;27.60;94.60;;;;;;4996751;28;20462;-89
2022/07/29 10:41:26;;;;;;;7.27;6.80;;;28.00;93.40;;;;;;4992839;28;20446;-89
2022/07/29 10:43:59;;;;;;;6.80;6.40;;;27.60;93.70;;;;;;5010471;28;20451;-88
2022/07/29 10:46:26;;;;;;;7.50;6.90;;;27.70;93.80;;;;;;5000356;28;20505;-88
2022/07/29 10:49:12;;;;;;;7.10;6.60;;;27.60;92.90;;;;;;4999170;28;20798;-88
2022/07/29 10:52:07;;;;;;;6.80;6.30;;;27.40;93.50;;;;;;4995637;28;20439;-88
2022/07/29 10:54:33;;;;;;;7.17;6.67;;;27.50;92.90;;;;;;5001812;28;20443;-88
2022/07/29 10:57:13;;;;;;;7.40;6.90;;;27.50;93.00;;;;;;4997020;28;20494;-88
2022/07/29 10:59:39;;;;;;;7.10;6.70;;;27.30;92.60;;;;;;4996403;28;20279;-88
2022/07/29 11:02:36;;;;;;;7.50;6.83;;;27.00;92.80;;;;;;4995607;28;20434;-89
2022/07/29 11:05:05;;;;;;;6.87;6.47;;;27.00;92.90;;;;;;5016963;28;20605;-89
2022/07/29 11:07:34;;;;;;;7.50;7.00;;;27.10;94.10;;;;;;4999909;28;20440;-88
2022/07/29 11:10:11;;;;;;;7.60;7.00;;;26.90;93.00;;;;;;4993638;28;20471;-89
2022/07/29 11:12:37;;;;;;;7.10;6.60;;;26.70;94.20;;;;;;4997869;28;20440;-88
2022/07/29 11:15:08;;;;;;;7.40;6.73;;;26.40;93.70;;;;;;4994771;28;20466;-88
2022/07/29 11:17:52;;;;;;;7.63;7.07;;;26.10;93.70;;;;;;4997877;28;20200;-89
2022/07/29 11:20:49;;;;;;;7.50;6.80;;;25.90;94.00;;;;;;5014556;28;20439;-88
2022/07/29 11:23:31;;;;;;;7.17;6.47;;;25.70;93.40;;;;;;5005405;28;20504;-89
2022/07/29 11:26:20;;;;;;;7.13;6.70;;;25.60;92.80;;;;;;4998388;28;20953;-89
2022/07/29 11:29:04;;;;;;;6.37;5.80;;;25.40;92.90;;;;;;4996464;28;20640;-87
2022/07/29 11:31:37;;;;;;;7.03;6.43;;;24.60;94.40;;;;;;5009528;28;20435;-87
2022/07/29 11:34:20;;;;;;;5.97;5.57;;;23.60;98.30;;;;;;4985114;28;21093;-88
2022/07/29 11:37:12;;;;;;;5.70;5.20;;;22.70;99.90;;;;;;4989463;28;20434;-88
2022/07/29 11:39:54;;;;;;;4.30;3.03;;;22.20;99.90;;;;;;4989808;28;20499;-88
2022/07/29 11:42:20;;;;;;;2.70;2.37;;;22.10;99.80;;;;;;4984800;28;20535;-88
2022/07/29 11:45:15;;;;;;;2.00;1.80;;;21.70;99.90;;;;;;4981834;28;20496;-88
2022/07/29 11:47:44;;;;;;;1.80;1.70;;;21.60;98.50;;;;;;4980415;28;20194;-88
2022/07/29 11:50:13;;;;;;;5.07;2.53;;;21.60;99.90;;;;;;4999933;28;20468;-89
2022/07/29 11:52:47;;;;;;;8.97;2.70;;;21.20;99.90;;;;;;4984224;28;20838;-87
2022/07/29 11:55:15;;;;;;;4.30;3.30;;;20.50;99.90;;;;;;4996668;28;20445;-87
2022/07/29 11:57:49;;;;;;;3.13;2.60;;;19.70;99.90;;;;;;5001439;28;20819;-86
2022/07/29 12:00:33;;;;;;;5.20;2.90;;;19.30;99.90;;;;;;5004594;28;20479;-87
2022/07/29 12:03:01;;;;;;;3.17;2.87;;;19.50;99.90;;;;;;5003451;28;20444;-87
2022/07/29 12:05:47;;;;;;;3.10;2.90;;;20.20;99.90;;;;;;4987187;28;20435;-87
2022/07/29 12:08:25;;;;;;;2.80;2.60;;;21.40;99.90;;;;;;4989653;28;20876;-87
2022/07/29 12:10:51;;;;;;;3.10;2.80;;;22.40;99.90;;;;;;4985773;28;20443;-87
2022/07/29 12:13:19;;;;;;;2.40;2.30;;;23.10;99.90;;;;;;4991740;28;20505;-87
2022/07/29 12:15:56;;;;;;;2.33;2.23;;;23.50;99.90;;;;;;4986021;28;20443;-87
2022/07/29 12:18:23;;;;;;;3.97;3.10;;;23.70;99.90;;;;;;4987920;28;20562;-88
2022/07/29 12:20:56;;;;;;;4.10;3.20;;;23.50;99.90;;;;;;4993793;28;20653;-88
2022/07/29 12:23:21;;;;;;;2.90;2.70;;;23.20;99.90;;;;;;4983068;28;20531;-88
2022/07/29 12:25:47;;;;;;;2.70;2.60;;;22.60;99.90;;;;;;4999638;28;20531;-88
2022/07/29 12:28:15;;;;;;;3.60;3.33;;;22.40;99.90;;;;;;4980644;28;20827;-88
2022/07/29 12:30:44;;;;;;;3.30;3.10;;;22.10;99.90;;;;;;4986028;28;20205;-88
2022/07/29 12:33:16;;;;;;;2.93;2.73;;;21.70;99.90;;;;;;4981138;28;20527;-87
2022/07/29 12:35:47;;;;;;;3.67;3.47;;;21.40;99.90;;;;;;4979752;28;20526;-87
2022/07/29 12:38:24;;;;;;;4.57;4.07;;;21.00;99.90;;;;;;4997492;28;20789;-86
2022/07/29 12:40:52;;;;;;;6.53;5.73;;;20.60;99.90;;;;;;5004557;28;20458;-86
2022/07/29 12:43:22;;;;;;;5.57;5.17;;;20.30;99.90;;;;;;4999990;28;20530;-87
2022/07/29 12:45:56;;;;;;;6.23;5.40;;;20.30;99.90;;;;;;4984063;28;20453;-86
2022/07/29 12:48:36;;;;;;;5.60;5.10;;;20.30;99.90;;;;;;4982563;28;20454;-87
2022/07/29 12:51:03;;;;;;;6.87;6.27;;;20.10;99.90;;;;;;4980760;28;21273;-86
2022/07/29 12:53:29;;;;;;;7.37;6.20;;;20.10;99.90;;;;;;5003534;28;21375;-87
2022/07/29 12:55:59;;;;;;;6.27;5.77;;;20.20;99.90;;;;;;4989925;28;20849;-86
2022/07/29 12:58:38;;;;;;;6.00;5.60;;;20.10;99.90;;;;;;4984293;28;20479;-86
2022/07/29 13:01:13;;;;;;;5.60;5.20;;;20.10;99.90;;;;;;4985898;28;20447;-86
2022/07/29 13:03:57;;;;;;;6.00;5.60;;;20.30;99.90;;;;;;4981370;28;20431;-87
2022/07/29 13:06:33;;;;;;;6.33;5.83;;;20.40;99.90;;;;;;4981789;28;20440;-87
2022/07/29 13:09:27;;;;;;;6.63;6.03;;;20.60;99.90;;;;;;4997066;28;20818;-87
2022/07/29 13:11:53;;;;;;;7.07;6.43;;;20.60;99.90;;;;;;4975492;28;20561;-87
2022/07/29 13:14:38;;;;;;;7.90;7.20;;;20.70;99.90;;;;;;4998871;28;20545;-87